SCDA 231500Z 28004KT 9999 OVC020 15/11 Q1017